createdAt,value
2018-08-31T00:02:39.844Z,13.73
2018-08-31T00:05:52.765Z,13.83
2018-08-31T00:08:52.993Z,16.03
2018-08-31T00:13:39.096Z,19.03
2018-08-31T00:16:20.684Z,12.17
2018-08-31T00:18:57.272Z,12.83
2018-08-31T00:21:33.816Z,10.13
2018-08-31T00:24:16.840Z,13.87
2018-08-31T00:26:59.873Z,14.17
2018-08-31T00:29:43.276Z,12.70
2018-08-31T00:32:26.281Z,9.10
2018-08-31T00:35:39.850Z,10.60
2018-08-31T00:39:21.855Z,12.30
2018-08-31T00:59:14.815Z,9.03
2018-08-31T01:01:57.836Z,10.93
2018-08-31T01:21:54.890Z,10.60
2018-08-31T01:24:34.839Z,11.67
2018-08-31T01:27:15.006Z,11.27
2018-08-31T01:47:18.190Z,14.90
2018-08-31T01:49:54.862Z,11.67
2018-08-31T02:09:50.895Z,11.87
2018-08-31T02:12:28.356Z,11.80
2018-08-31T02:15:06.902Z,16.10
2018-08-31T02:34:59.855Z,10.90
2018-08-31T02:37:36.736Z,9.13
2018-08-31T02:57:32.968Z,11.70
2018-08-31T03:00:09.848Z,16.07
2018-08-31T03:02:47.750Z,10.97
2018-08-31T03:22:43.393Z,12.00
2018-08-31T03:25:19.838Z,11.77
2018-08-31T03:48:16.974Z,17.20
2018-08-31T03:50:55.025Z,18.17
2018-08-31T04:02:10.412Z,15.17
2018-08-31T04:22:06.459Z,25.23
2018-08-31T04:24:43.155Z,26.00
2018-08-31T04:27:19.006Z,31.27
2018-08-31T04:29:55.059Z,25.87
2018-08-31T04:32:32.149Z,25.50
2018-08-31T04:52:27.151Z,27.03
2018-08-31T04:55:03.210Z,24.67
2018-08-31T04:57:39.264Z,23.57
2018-08-31T05:00:16.676Z,25.50
2018-08-31T05:02:53.224Z,23.07
2018-08-31T05:22:48.280Z,23.90
2018-08-31T05:25:24.288Z,24.47
2018-08-31T05:45:19.680Z,26.33
2018-08-31T05:48:04.370Z,23.27
2018-08-31T05:50:46.168Z,22.50
2018-08-31T06:10:39.321Z,25.37
2018-08-31T06:13:20.507Z,20.33
2018-08-31T06:36:08.740Z,23.17
2018-08-31T06:38:45.767Z,24.13
2018-08-31T06:41:24.363Z,20.70
2018-08-31T06:44:05.335Z,27.07
2018-08-31T06:46:45.808Z,21.50
2018-08-31T06:49:21.341Z,22.37
2018-08-31T06:52:03.749Z,30.47
2018-08-31T06:54:39.400Z,22.90
2018-08-31T06:57:16.477Z,28.23
2018-08-31T06:59:53.354Z,26.90
2018-08-31T07:02:31.255Z,23.13
2018-08-31T07:05:06.290Z,25.07
2018-08-31T07:07:42.347Z,21.33
2018-08-31T07:10:18.403Z,25.63
2018-08-31T07:12:55.687Z,24.73
2018-08-31T07:15:32.839Z,24.00
2018-08-31T07:18:08.427Z,24.67
2018-08-31T07:20:50.420Z,24.83
2018-08-31T07:23:27.293Z,26.23
2018-08-31T07:26:05.403Z,25.13
2018-08-31T07:28:46.781Z,23.33
2018-08-31T07:31:23.659Z,32.53
2018-08-31T07:34:01.358Z,26.83
2018-08-31T07:36:43.769Z,24.77
2018-08-31T07:39:19.405Z,22.93
2018-08-31T07:41:57.326Z,25.37
2018-08-31T07:47:17.422Z,23.33
2018-08-31T07:49:57.841Z,28.03
2018-08-31T07:52:33.416Z,22.13
2018-08-31T07:55:12.340Z,23.73
2018-08-31T07:57:49.217Z,24.83
2018-08-31T08:00:29.951Z,23.03
2018-08-31T08:03:04.407Z,23.23
2018-08-31T08:05:41.386Z,26.43
2018-08-31T08:08:16.865Z,24.77
2018-08-31T08:10:54.428Z,22.57
2018-08-31T08:13:33.557Z,21.97
2018-08-31T08:16:12.898Z,25.23
2018-08-31T08:18:52.429Z,24.57
2018-08-31T08:21:29.509Z,29.23
2018-08-31T08:24:14.378Z,25.50
2018-08-31T08:26:51.448Z,24.57
2018-08-31T08:29:32.429Z,27.83
2018-08-31T08:32:08.479Z,21.13
2018-08-31T08:34:44.333Z,25.87
2018-08-31T08:37:21.947Z,22.73
2018-08-31T08:39:58.496Z,24.63
2018-08-31T08:42:41.519Z,20.97
2018-08-31T08:45:18.404Z,22.13
2018-08-31T08:47:57.731Z,22.07
2018-08-31T08:50:35.631Z,26.23
2018-08-31T08:53:12.716Z,32.23
2018-08-31T08:55:51.849Z,24.03
2018-08-31T08:58:30.565Z,26.33
2018-08-31T09:01:11.330Z,27.03
2018-08-31T09:03:50.994Z,30.00
2018-08-31T09:06:26.517Z,26.60
2018-08-31T09:09:02.572Z,23.53
2018-08-31T09:11:38.017Z,29.30
2018-08-31T09:14:20.833Z,28.10
2018-08-31T09:16:59.761Z,25.83
2018-08-31T09:19:37.457Z,24.07
2018-08-31T09:22:20.270Z,28.43
2018-08-31T09:24:57.560Z,25.60
2018-08-31T09:27:40.580Z,25.47
2018-08-31T09:30:19.500Z,29.37
2018-08-31T09:32:55.561Z,25.77
2018-08-31T09:35:37.966Z,27.97
2018-08-31T09:38:12.592Z,27.07
2018-08-31T09:40:51.533Z,26.57
2018-08-31T09:43:28.597Z,32.90
2018-08-31T09:46:06.500Z,27.53
2018-08-31T09:48:42.555Z,27.60
2018-08-31T09:51:19.431Z,27.13
2018-08-31T09:53:56.516Z,26.57
2018-08-31T09:56:33.594Z,26.93
2018-08-31T09:59:08.838Z,29.40
2018-08-31T10:01:46.323Z,26.67
2018-08-31T10:04:23.403Z,27.70
2018-08-31T10:07:01.508Z,29.63
2018-08-31T10:09:38.592Z,29.70
2018-08-31T10:12:15.673Z,29.80
2018-08-31T10:14:58.497Z,32.77
2018-08-31T10:17:35.573Z,33.93
2018-08-31T10:20:16.542Z,31.20
2018-08-31T10:22:51.373Z,28.57
2018-08-31T10:42:45.571Z,32.20
2018-08-31T11:02:42.621Z,37.00
2018-08-31T11:05:19.696Z,32.60
2018-08-31T11:08:01.116Z,34.93
2018-08-31T11:10:40.211Z,38.77
2018-08-31T11:13:18.520Z,38.43
2018-08-31T11:16:03.591Z,27.93
2018-08-31T11:18:41.756Z,31.73
2018-08-31T11:21:18.776Z,34.50
2018-08-31T11:23:57.124Z,30.97
2018-08-31T11:43:51.684Z,42.27
2018-08-31T11:46:28.764Z,37.60
2018-08-31T11:49:07.487Z,38.73
2018-08-31T12:09:02.195Z,33.60
2018-08-31T12:11:37.731Z,33.47
2018-08-31T12:31:30.688Z,36.77
2018-08-31T12:34:05.724Z,35.57
2018-08-31T12:36:40.763Z,36.80
2018-08-31T12:56:35.773Z,34.57
2018-08-31T12:59:11.186Z,33.93
2018-08-31T13:01:51.774Z,34.27
2018-08-31T13:04:29.881Z,43.07
2018-08-31T13:07:07.774Z,33.50
2018-08-31T13:09:47.190Z,25.73
2018-08-31T13:12:29.246Z,23.40
2018-08-31T13:32:25.754Z,14.83
2018-08-31T13:35:06.942Z,18.30
2018-08-31T13:55:00.708Z,3.40
2018-08-31T13:57:36.973Z,2.97
2018-08-31T14:00:16.215Z,2.80
2018-08-31T14:20:13.773Z,2.87
2018-08-31T14:22:50.652Z,2.90
2018-08-31T14:42:43.812Z,2.83
2018-08-31T14:45:20.230Z,2.00
2018-08-31T14:47:55.723Z,3.57
2018-08-31T15:07:54.018Z,2.47
2018-08-31T15:10:32.736Z,1.93
2018-08-31T15:13:11.778Z,1.60
2018-08-31T15:15:51.688Z,2.50
2018-08-31T15:18:30.527Z,22.40
2018-08-31T15:38:26.561Z,2.20
2018-08-31T15:58:26.074Z,2.57
2018-08-31T16:01:05.818Z,2.60
2018-08-31T16:03:44.736Z,3.23
2018-08-31T16:06:20.800Z,3.20
2018-08-31T16:26:15.806Z,3.20
2018-08-31T16:28:58.549Z,3.07
2018-08-31T16:48:52.614Z,7.67
2018-08-31T17:08:46.363Z,3.83
2018-08-31T17:11:23.380Z,4.47
2018-08-31T17:14:01.474Z,4.40
2018-08-31T17:16:45.016Z,5.20
2018-08-31T17:19:22.400Z,4.80
2018-08-31T17:22:04.904Z,6.07
2018-08-31T17:24:48.947Z,6.00
2018-08-31T17:44:42.925Z,6.33
2018-08-31T17:47:21.033Z,5.57
2018-08-31T18:07:16.043Z,5.93
2018-08-31T18:09:54.968Z,10.97
2018-08-31T18:12:31.020Z,7.53
2018-08-31T18:32:28.079Z,8.27
2018-08-31T18:52:28.061Z,9.73
2018-08-31T18:55:08.158Z,10.00
2018-08-31T19:15:04.636Z,12.60
2018-08-31T19:17:41.060Z,16.67
2018-08-31T19:20:20.190Z,9.67
2018-08-31T19:22:56.457Z,16.20
2018-08-31T19:25:33.127Z,13.43
2018-08-31T19:45:28.664Z,11.77
2018-08-31T19:48:06.252Z,9.83
2018-08-31T20:07:57.154Z,10.13
2018-08-31T20:10:33.205Z,9.57
2018-08-31T20:13:10.289Z,7.90
2018-08-31T20:33:04.285Z,17.50
2018-08-31T20:35:41.353Z,14.30
2018-08-31T20:38:17.207Z,11.60
2018-08-31T20:40:53.264Z,11.10
2018-08-31T20:43:29.326Z,10.53
2018-08-31T21:03:25.969Z,6.97
2018-08-31T21:06:01.615Z,7.67
2018-08-31T21:08:43.610Z,7.00
2018-08-31T21:11:20.287Z,8.13
2018-08-31T21:13:57.737Z,7.10
2018-08-31T21:33:50.324Z,8.40
2018-08-31T21:36:28.223Z,7.33
2018-08-31T21:59:07.767Z,7.07
2018-08-31T22:01:50.718Z,5.33
2018-08-31T22:21:41.777Z,5.97
2018-08-31T22:24:19.320Z,4.90
2018-08-31T22:26:54.348Z,5.07
2018-08-31T22:29:29.380Z,4.90
2018-08-31T22:32:07.287Z,5.50
2018-08-31T22:52:02.299Z,2.97
2018-08-31T22:54:42.444Z,3.97
2018-08-31T22:57:18.309Z,3.60
2018-08-31T22:59:55.787Z,3.73
2018-08-31T23:19:52.440Z,2.70
2018-08-31T23:39:48.874Z,3.90
2018-08-31T23:42:27.804Z,4.27
2018-08-31T23:45:03.448Z,5.40
2018-08-31T23:47:42.583Z,8.13
2018-08-31T23:50:19.454Z,9.33
2018-08-31T23:53:00.425Z,8.37
2018-08-31T23:55:36.502Z,10.17
2018-08-31T23:58:12.339Z,8.30
